Tupper Lake, New York
Current Conditions -  °F | °C
As of 10:51 AM on Sunday 23 Nov 2014 (Local Time) from KSLK Reporting Station
Moderate Fog Moderate Fog  
Wind Chill: 33°   Ceiling: 300
Heat Index: 39°   Visibility: 0.5mi
Dew Point: 39°   Wind: 8mph
Humidity: 100%   Direction: 230°SW
Pressure: 30"   Gusts: NA
Location:  44.22°N, 74.46°W
Report Text: KSLK 231551Z AUTO 23007KT 1/2SM FG OVC003 04/04 A3000 RMK AO2 SLP173 T00390039
Loading
Personal Weather Stations






























Interactive Weather Map New forecast layout! Learn more

10-Day Weather Forecast

Advertisements
Track Severe Weather on mobile